createdAt,value
2022-07-25T00:00:51.685Z,67.62
2022-07-25T00:03:19.354Z,67.79
2022-07-25T00:05:47.613Z,67.75
2022-07-25T00:08:15.335Z,67.77
2022-07-25T00:10:43.074Z,67.94
2022-07-25T00:13:10.795Z,68.07
2022-07-25T00:15:38.841Z,68.29
2022-07-25T00:18:06.562Z,68.54
2022-07-25T00:20:34.243Z,68.73
2022-07-25T00:23:01.993Z,68.71
2022-07-25T00:25:29.696Z,68.68
2022-07-25T00:27:57.444Z,68.65
2022-07-25T00:30:25.146Z,68.76
2022-07-25T00:32:53.623Z,68.96
2022-07-25T00:35:21.294Z,69.09
2022-07-25T00:37:49.072Z,69.29
2022-07-25T00:40:16.785Z,69.55
2022-07-25T00:42:44.488Z,69.75
2022-07-25T00:45:12.420Z,69.94
2022-07-25T00:47:40.260Z,70.08
2022-07-25T00:50:08.504Z,70.05
2022-07-25T00:52:36.547Z,70.11
2022-07-25T00:55:04.731Z,70.09
2022-07-25T00:57:32.475Z,70.22
2022-07-25T01:00:00.281Z,70.54
2022-07-25T01:02:28.088Z,70.86
2022-07-25T01:04:56.126Z,71.10
2022-07-25T01:07:24.472Z,71.38
2022-07-25T01:09:52.428Z,71.50
2022-07-25T01:12:20.801Z,71.71
2022-07-25T01:14:48.732Z,71.79
2022-07-25T01:17:16.443Z,71.94
2022-07-25T01:19:44.228Z,71.92
2022-07-25T01:22:11.948Z,71.58
2022-07-25T01:24:40.443Z,71.45
2022-07-25T01:27:08.220Z,71.55
2022-07-25T01:29:44.818Z,72.33
2022-07-25T01:32:13.589Z,72.80
2022-07-25T01:34:41.560Z,73.42
2022-07-25T01:37:09.223Z,73.72
2022-07-25T01:39:36.885Z,73.82
2022-07-25T01:42:04.751Z,73.92
2022-07-25T01:44:32.478Z,74.00
2022-07-25T01:47:00.136Z,74.17
2022-07-25T01:49:27.904Z,74.28
2022-07-25T01:51:55.600Z,74.33
2022-07-25T01:54:23.361Z,74.45
2022-07-25T01:56:52.266Z,74.53
2022-07-25T01:59:19.988Z,74.65
2022-07-25T02:01:47.804Z,74.73
2022-07-25T02:04:15.593Z,74.83
2022-07-25T02:06:43.330Z,74.95
2022-07-25T02:09:11.286Z,75.10
2022-07-25T02:11:39.090Z,75.28
2022-07-25T02:14:07.409Z,75.48
2022-07-25T02:16:35.440Z,75.71
2022-07-25T02:19:03.398Z,75.94
2022-07-25T02:21:31.310Z,76.10
2022-07-25T02:23:59.133Z,76.23
2022-07-25T02:26:26.902Z,76.39
2022-07-25T02:28:54.588Z,76.22
2022-07-25T02:31:22.367Z,76.17
2022-07-25T02:33:50.179Z,76.15
2022-07-25T02:36:18.161Z,76.11
2022-07-25T02:38:46.006Z,76.13
2022-07-25T02:41:13.723Z,76.24
2022-07-25T02:43:41.463Z,76.35
2022-07-25T02:46:09.178Z,76.53
2022-07-25T02:48:36.965Z,76.71
2022-07-25T02:51:04.863Z,77.01
2022-07-25T02:53:56.213Z,77.06
2022-07-25T02:56:21.173Z,77.15
2022-07-25T02:58:49.203Z,77.21
2022-07-25T03:01:16.992Z,77.30
2022-07-25T03:03:44.799Z,77.50
2022-07-25T03:06:12.527Z,77.63
2022-07-25T03:08:40.280Z,77.94
2022-07-25T03:11:08.038Z,78.10
2022-07-25T03:13:35.847Z,78.22
2022-07-25T03:16:03.622Z,78.42
2022-07-25T03:18:31.388Z,78.65
2022-07-25T03:20:59.078Z,78.83
2022-07-25T03:23:28.454Z,78.94
2022-07-25T03:25:56.945Z,78.99
2022-07-25T03:28:25.848Z,79.15
2022-07-25T03:30:54.326Z,79.21
2022-07-25T03:33:22.068Z,79.49
2022-07-25T03:35:49.852Z,79.77
2022-07-25T03:38:17.526Z,79.96
2022-07-25T03:40:45.555Z,80.05
2022-07-25T03:43:13.214Z,80.41
2022-07-25T03:45:41.001Z,80.57
2022-07-25T03:48:08.940Z,80.78
2022-07-25T03:50:36.695Z,80.74
2022-07-25T03:53:04.781Z,80.84
2022-07-25T03:55:32.485Z,80.95
2022-07-25T03:58:00.221Z,81.05
2022-07-25T04:00:28.103Z,81.35
2022-07-25T04:02:55.790Z,81.51
2022-07-25T04:05:23.466Z,81.64
2022-07-25T04:07:51.176Z,81.59
2022-07-25T04:10:18.848Z,81.75
2022-07-25T04:12:46.718Z,81.99
2022-07-25T04:15:14.498Z,82.29
2022-07-25T04:17:42.173Z,82.44
2022-07-25T04:20:11.049Z,82.49
2022-07-25T04:22:42.170Z,82.67
2022-07-25T04:25:12.488Z,82.83
2022-07-25T04:27:40.348Z,83.04
2022-07-25T04:30:08.557Z,83.06
2022-07-25T04:32:36.218Z,83.35
2022-07-25T04:35:03.903Z,83.48
2022-07-25T04:37:31.619Z,83.57
2022-07-25T04:39:59.470Z,83.93
2022-07-25T04:42:27.253Z,84.01
2022-07-25T04:44:55.329Z,84.16
2022-07-25T04:47:23.041Z,84.39
2022-07-25T04:49:50.740Z,84.72
2022-07-25T04:52:18.413Z,84.79
2022-07-25T04:54:46.133Z,84.80
2022-07-25T04:57:13.895Z,84.95
2022-07-25T04:59:41.642Z,85.09
2022-07-25T05:02:09.348Z,85.19
2022-07-25T05:04:37.054Z,85.50
2022-07-25T05:07:12.646Z,85.60
2022-07-25T05:09:41.035Z,85.79
2022-07-25T05:12:09.059Z,86.14
2022-07-25T05:14:36.870Z,86.30
2022-07-25T05:17:04.501Z,86.42
2022-07-25T05:19:32.217Z,86.65
2022-07-25T05:21:59.966Z,86.77
2022-07-25T05:24:28.086Z,86.63
2022-07-25T05:26:55.744Z,86.76
2022-07-25T05:29:23.408Z,87.02
2022-07-25T05:31:51.159Z,87.00
2022-07-25T05:34:18.871Z,87.12
2022-07-25T05:36:47.572Z,87.14
2022-07-25T05:39:15.440Z,87.08
2022-07-25T05:41:43.269Z,87.06
2022-07-25T05:44:11.026Z,87.05
2022-07-25T05:46:38.906Z,87.19
2022-07-25T05:49:06.702Z,87.01
2022-07-25T05:51:34.426Z,86.93
2022-07-25T05:54:02.114Z,86.85
2022-07-25T05:56:31.122Z,86.71
2022-07-25T05:58:58.795Z,86.61
2022-07-25T06:01:26.554Z,86.43
2022-07-25T06:03:54.348Z,86.37
2022-07-25T06:06:22.067Z,86.41
2022-07-25T06:08:49.753Z,86.26
2022-07-25T06:11:17.461Z,86.15
2022-07-25T06:13:45.383Z,86.02
2022-07-25T06:16:13.215Z,86.10
2022-07-25T06:18:40.959Z,86.29
2022-07-25T06:21:08.673Z,86.15
2022-07-25T06:23:36.338Z,85.88
2022-07-25T06:26:04.065Z,85.74
2022-07-25T06:28:31.776Z,85.60
2022-07-25T06:30:59.574Z,85.61
2022-07-25T06:33:27.289Z,84.13
2022-07-25T06:35:55.077Z,84.17
2022-07-25T06:38:22.750Z,84.11
2022-07-25T06:40:50.446Z,83.95
2022-07-25T06:43:18.232Z,83.39
2022-07-25T06:45:48.557Z,83.43
2022-07-25T06:48:17.290Z,82.67
2022-07-25T06:50:45.333Z,82.24
2022-07-25T06:53:13.498Z,82.29
2022-07-25T06:55:41.239Z,82.42
2022-07-25T06:58:09.113Z,82.37
2022-07-25T07:00:36.852Z,82.30
2022-07-25T07:03:05.016Z,82.14
2022-07-25T07:05:35.364Z,81.81
2022-07-25T07:08:03.895Z,81.60
2022-07-25T07:10:32.020Z,81.44
2022-07-25T07:13:08.120Z,81.35
2022-07-25T07:15:36.112Z,81.08
2022-07-25T07:18:03.971Z,80.87
2022-07-25T07:20:31.800Z,80.61
2022-07-25T07:22:59.468Z,80.36
2022-07-25T07:25:28.530Z,79.90
2022-07-25T07:27:56.522Z,79.74
2022-07-25T07:30:27.847Z,79.55
2022-07-25T07:33:01.505Z,79.22
2022-07-25T07:35:29.387Z,78.75
2022-07-25T07:38:02.582Z,78.32
2022-07-25T07:40:30.323Z,77.93
2022-07-25T07:42:59.586Z,77.54
2022-07-25T07:45:27.376Z,77.10
2022-07-25T07:47:56.171Z,76.89
2022-07-25T07:50:28.544Z,76.75
2022-07-25T07:52:57.649Z,76.26
2022-07-25T07:55:44.093Z,76.44
2022-07-25T07:58:17.404Z,76.32
2022-07-25T08:00:50.529Z,75.83
2022-07-25T08:03:22.826Z,75.79
2022-07-25T08:05:52.779Z,75.42
2022-07-25T08:08:21.522Z,75.15
2022-07-25T08:10:51.885Z,74.87
2022-07-25T08:13:31.409Z,74.43
2022-07-25T08:16:01.206Z,74.08
2022-07-25T08:18:30.940Z,74.36
2022-07-25T08:20:58.705Z,74.30
2022-07-25T08:23:28.772Z,74.26
2022-07-25T08:25:56.711Z,73.99
2022-07-25T08:28:24.506Z,73.99
2022-07-25T08:30:52.615Z,73.86
2022-07-25T08:33:20.491Z,73.89
2022-07-25T08:35:50.058Z,73.67
2022-07-25T08:38:17.855Z,73.36
2022-07-25T08:40:45.690Z,73.33
2022-07-25T08:43:15.221Z,73.20
2022-07-25T08:45:48.966Z,72.90
2022-07-25T08:48:22.407Z,72.17
2022-07-25T08:50:51.103Z,72.12
2022-07-25T08:53:36.095Z,72.24
2022-07-25T08:56:13.397Z,72.21
2022-07-25T08:58:44.601Z,71.77
2022-07-25T09:01:15.823Z,71.66
2022-07-25T09:03:44.617Z,71.38
2022-07-25T09:06:21.059Z,71.14
2022-07-25T09:09:00.630Z,70.12
2022-07-25T09:11:36.331Z,70.45
2022-07-25T09:14:13.124Z,70.59
2022-07-25T09:16:45.179Z,70.20
2022-07-25T09:19:15.996Z,70.10
2022-07-25T09:21:45.528Z,69.79
2022-07-25T09:24:18.797Z,69.72
2022-07-25T09:26:54.860Z,69.16
2022-07-25T09:29:24.433Z,68.76
2022-07-25T09:31:53.347Z,69.14
2022-07-25T09:34:35.590Z,69.15
2022-07-25T09:37:11.014Z,67.75
2022-07-25T09:39:46.427Z,68.00
2022-07-25T09:42:18.751Z,67.43
2022-07-25T09:45:02.173Z,66.62
2022-07-25T09:47:31.762Z,66.45
2022-07-25T09:49:59.664Z,66.68
2022-07-25T09:52:27.557Z,66.57
2022-07-25T09:54:57.985Z,66.58
2022-07-25T09:57:26.919Z,65.14
2022-07-25T09:59:55.216Z,65.71
2022-07-25T10:02:47.794Z,63.47
2022-07-25T10:05:48.031Z,63.93
2022-07-25T10:08:16.231Z,63.35
2022-07-25T10:10:44.097Z,61.22
2022-07-25T10:13:16.602Z,61.11
2022-07-25T10:15:46.400Z,59.83
2022-07-25T10:18:16.393Z,58.65
2022-07-25T10:20:46.665Z,56.80
2022-07-25T10:23:22.858Z,57.13
2022-07-25T10:26:17.304Z,54.42
2022-07-25T10:28:50.293Z,54.00
2022-07-25T10:31:25.577Z,52.39
2022-07-25T10:33:56.639Z,51.74
2022-07-25T10:36:25.820Z,50.78
2022-07-25T10:38:57.235Z,49.30
2022-07-25T10:41:27.438Z,50.06
2022-07-25T10:44:00.860Z,49.71
2022-07-25T10:46:31.836Z,48.15
2022-07-25T10:49:02.133Z,49.17
2022-07-25T10:51:36.001Z,49.53
2022-07-25T10:54:17.937Z,50.29
2022-07-25T10:57:16.229Z,47.70
2022-07-25T10:59:43.995Z,47.16
2022-07-25T11:02:19.261Z,48.04
2022-07-25T11:04:59.656Z,47.44
2022-07-25T11:07:29.802Z,45.35
2022-07-25T11:10:00.175Z,44.64
2022-07-25T11:12:28.940Z,45.63
2022-07-25T11:15:04.898Z,44.97
2022-07-25T11:17:33.593Z,42.41
2022-07-25T11:20:09.445Z,41.91
2022-07-25T11:22:37.291Z,43.27
2022-07-25T11:25:13.937Z,42.92
2022-07-25T11:27:41.777Z,40.80
2022-07-25T11:30:17.219Z,40.28
2022-07-25T11:32:54.434Z,40.35
2022-07-25T11:35:24.988Z,40.01
2022-07-25T11:37:54.699Z,39.57
2022-07-25T11:40:23.776Z,38.87
2022-07-25T11:42:54.438Z,38.21
2022-07-25T11:45:26.150Z,39.27
2022-07-25T11:48:14.928Z,38.23
2022-07-25T11:50:45.557Z,35.63
2022-07-25T11:53:17.481Z,37.98
2022-07-25T11:55:45.411Z,38.36
2022-07-25T11:58:14.911Z,39.17
2022-07-25T12:00:48.590Z,38.01
2022-07-25T12:03:20.656Z,36.29
2022-07-25T12:05:50.336Z,37.80
2022-07-25T12:08:20.338Z,38.18
2022-07-25T12:10:50.247Z,37.81
2022-07-25T12:13:29.916Z,36.22
2022-07-25T12:16:01.481Z,35.81
2022-07-25T12:18:29.845Z,37.04
2022-07-25T12:20:57.538Z,35.98
2022-07-25T12:23:25.335Z,35.08
2022-07-25T12:25:53.046Z,35.21
2022-07-25T12:28:20.825Z,32.38
2022-07-25T12:30:53.022Z,31.69
2022-07-25T12:33:23.893Z,31.35
2022-07-25T12:35:51.816Z,32.34
2022-07-25T12:38:19.473Z,33.47
2022-07-25T12:40:47.290Z,33.82
2022-07-25T12:43:15.007Z,33.11
2022-07-25T12:45:43.660Z,32.58
2022-07-25T12:48:13.862Z,32.53
2022-07-25T12:50:42.459Z,31.16
2022-07-25T12:53:10.529Z,29.94
2022-07-25T12:55:38.278Z,30.23
2022-07-25T12:58:06.179Z,30.34
2022-07-25T13:00:34.047Z,31.44
2022-07-25T13:03:01.913Z,31.68
2022-07-25T13:05:30.671Z,30.37
2022-07-25T13:07:58.446Z,31.54
2022-07-25T13:10:26.185Z,32.45
2022-07-25T13:12:53.923Z,30.78
2022-07-25T13:15:24.368Z,31.85
2022-07-25T13:17:52.150Z,31.47
2022-07-25T13:20:19.945Z,32.24
2022-07-25T13:22:47.762Z,32.47
2022-07-25T13:25:15.534Z,32.94
2022-07-25T13:27:43.209Z,33.07
2022-07-25T13:30:11.266Z,33.08
2022-07-25T13:32:39.226Z,32.50
2022-07-25T13:35:07.450Z,32.77
2022-07-25T13:37:35.365Z,32.61
2022-07-25T13:40:03.174Z,32.79
2022-07-25T13:42:31.009Z,32.46
2022-07-25T13:44:58.758Z,33.55
2022-07-25T13:47:30.316Z,33.33
2022-07-25T13:49:58.494Z,32.51
2022-07-25T13:52:26.352Z,33.23
2022-07-25T13:54:54.069Z,32.74
2022-07-25T13:57:21.864Z,32.78
2022-07-25T13:59:49.853Z,33.23
2022-07-25T14:02:17.695Z,32.63
2022-07-25T14:04:45.437Z,32.90
2022-07-25T14:07:13.157Z,33.43
2022-07-25T14:09:40.986Z,33.43
2022-07-25T14:12:08.855Z,33.21
2022-07-25T14:14:36.569Z,33.09
2022-07-25T14:17:04.367Z,33.83
2022-07-25T14:19:32.101Z,33.53
2022-07-25T14:21:59.884Z,32.67
2022-07-25T14:24:27.582Z,32.87
2022-07-25T14:26:56.227Z,33.12
2022-07-25T14:29:28.609Z,32.55
2022-07-25T14:31:58.614Z,33.07
2022-07-25T14:34:26.385Z,33.92
2022-07-25T14:36:54.127Z,33.63
2022-07-25T14:39:21.860Z,33.15
2022-07-25T14:41:49.819Z,33.17
2022-07-25T14:44:17.590Z,33.24
2022-07-25T14:46:45.581Z,33.14
2022-07-25T14:49:15.169Z,33.33
2022-07-25T14:51:44.040Z,33.01
2022-07-25T14:54:11.848Z,33.72
2022-07-25T14:56:40.810Z,33.83
2022-07-25T14:59:09.489Z,33.59
2022-07-25T15:01:39.177Z,33.44
2022-07-25T15:04:07.433Z,33.87
2022-07-25T15:06:35.654Z,33.89
2022-07-25T15:09:03.497Z,33.56
2022-07-25T15:11:31.512Z,34.01
2022-07-25T15:13:59.533Z,33.78
2022-07-25T15:16:27.314Z,33.37
2022-07-25T15:21:43.235Z,33.43
2022-07-25T15:24:10.939Z,33.72
2022-07-25T15:26:38.991Z,34.48
2022-07-25T15:29:11.424Z,33.92
2022-07-25T15:31:39.449Z,33.68
2022-07-25T15:34:07.204Z,33.82
2022-07-25T15:36:35.001Z,33.54
2022-07-25T15:39:02.948Z,33.70
2022-07-25T15:41:31.587Z,33.89
2022-07-25T15:44:00.848Z,33.93
2022-07-25T15:46:30.058Z,33.83
2022-07-25T15:48:58.975Z,33.83
2022-07-25T15:51:26.780Z,33.93
2022-07-25T15:53:54.555Z,33.98
2022-07-25T15:56:22.399Z,34.00
2022-07-25T15:58:50.502Z,34.11
2022-07-25T16:01:18.469Z,34.17
2022-07-25T16:03:46.575Z,34.13
2022-07-25T16:06:18.739Z,34.45
2022-07-25T16:08:46.687Z,34.69
2022-07-25T16:11:14.444Z,35.19
2022-07-25T16:13:43.022Z,35.41
2022-07-25T16:16:11.259Z,35.61
2022-07-25T16:18:39.005Z,35.88
2022-07-25T16:21:07.445Z,36.53
2022-07-25T16:23:39.670Z,37.21
2022-07-25T16:26:09.879Z,37.48
2022-07-25T16:28:37.777Z,37.67
2022-07-25T16:31:07.664Z,37.64
2022-07-25T16:33:35.564Z,37.62
2022-07-25T16:36:03.451Z,37.41
2022-07-25T16:38:31.314Z,37.39
2022-07-25T16:40:59.112Z,37.67
2022-07-25T16:43:26.970Z,37.63
2022-07-25T16:45:54.730Z,37.38
2022-07-25T16:48:22.810Z,37.36
2022-07-25T16:50:50.493Z,37.47
2022-07-25T16:53:18.201Z,37.41
2022-07-25T16:55:45.905Z,37.09
2022-07-25T16:58:13.722Z,37.19
2022-07-25T17:00:42.068Z,37.05
2022-07-25T17:03:09.730Z,37.05
2022-07-25T17:05:37.482Z,37.20
2022-07-25T17:08:05.547Z,37.64
2022-07-25T17:10:33.264Z,37.81
2022-07-25T17:13:00.940Z,38.07
2022-07-25T17:15:28.672Z,37.77
2022-07-25T17:17:56.359Z,37.76
2022-07-25T17:20:24.155Z,37.73
2022-07-25T17:22:51.914Z,37.75
2022-07-25T17:25:19.637Z,37.28
2022-07-25T17:27:47.416Z,37.21
2022-07-25T17:30:15.198Z,36.06
2022-07-25T17:32:43.086Z,36.82
2022-07-25T17:35:11.005Z,36.88
2022-07-25T17:37:38.891Z,36.70
2022-07-25T17:40:07.187Z,36.55
2022-07-25T17:42:35.132Z,36.19
2022-07-25T17:45:06.857Z,36.09
2022-07-25T17:47:36.177Z,35.89
2022-07-25T17:50:05.391Z,35.78
2022-07-25T17:52:33.357Z,35.68
2022-07-25T17:55:01.124Z,35.54
2022-07-25T17:57:29.351Z,35.22
2022-07-25T17:59:58.148Z,35.62
2022-07-25T18:02:25.958Z,35.82
2022-07-25T18:04:53.791Z,36.14
2022-07-25T18:07:21.783Z,35.99
2022-07-25T18:09:49.719Z,36.14
2022-07-25T18:12:17.458Z,36.34
2022-07-25T18:14:45.221Z,36.47
2022-07-25T18:17:12.983Z,36.57
2022-07-25T18:19:40.775Z,37.64
2022-07-25T18:22:08.534Z,38.73
2022-07-25T18:24:36.446Z,39.56
2022-07-25T18:27:05.671Z,40.52
2022-07-25T18:29:34.027Z,40.47
2022-07-25T18:32:02.816Z,40.63
2022-07-25T18:34:32.182Z,40.76
2022-07-25T18:37:00.318Z,41.46
2022-07-25T18:39:28.051Z,41.64
2022-07-25T18:41:55.780Z,42.01
2022-07-25T18:44:23.595Z,42.01
2022-07-25T18:46:51.685Z,41.74
2022-07-25T18:49:19.620Z,41.72
2022-07-25T18:51:47.449Z,41.88
2022-07-25T18:54:15.531Z,42.80
2022-07-25T18:56:44.270Z,43.66
2022-07-25T18:59:12.019Z,44.03
2022-07-25T19:01:39.775Z,43.63
2022-07-25T19:04:07.964Z,43.36
2022-07-25T19:06:35.871Z,43.00
2022-07-25T19:09:05.016Z,42.46
2022-07-25T19:11:35.110Z,41.67
2022-07-25T19:14:05.644Z,41.12
2022-07-25T19:16:33.891Z,40.63
2022-07-25T19:19:02.107Z,40.16
2022-07-25T19:21:29.846Z,39.72
2022-07-25T19:23:57.562Z,39.82
2022-07-25T19:26:25.706Z,39.97
2022-07-25T19:28:53.423Z,40.10
2022-07-25T19:31:21.557Z,39.91
2022-07-25T19:33:50.366Z,39.96
2022-07-25T19:36:18.189Z,39.96
2022-07-25T19:38:45.899Z,39.71
2022-07-25T19:41:13.927Z,39.76
2022-07-25T19:43:41.722Z,39.85
2022-07-25T19:46:09.525Z,39.73
2022-07-25T19:48:37.428Z,39.57
2022-07-25T19:51:05.424Z,39.66
2022-07-25T19:53:37.187Z,39.77
2022-07-25T19:56:05.486Z,39.72
2022-07-25T19:58:38.416Z,39.04
2022-07-25T20:01:06.814Z,39.11
2022-07-25T20:03:35.527Z,39.82
2022-07-25T20:06:07.852Z,41.68
2022-07-25T20:08:36.607Z,42.69
2022-07-25T20:11:04.588Z,43.56
2022-07-25T20:13:32.443Z,43.33
2022-07-25T20:16:00.373Z,43.28
2022-07-25T20:18:28.221Z,43.54
2022-07-25T20:20:55.976Z,44.18
2022-07-25T20:23:24.555Z,45.64
2022-07-25T20:25:52.379Z,47.29
2022-07-25T20:28:20.215Z,46.43
2022-07-25T20:30:47.980Z,45.91
2022-07-25T20:33:15.731Z,45.38
2022-07-25T20:35:43.501Z,45.35
2022-07-25T20:38:11.192Z,45.92
2022-07-25T20:40:48.060Z,46.46
2022-07-25T20:43:17.164Z,46.79
2022-07-25T20:45:45.743Z,48.07
2022-07-25T20:48:15.378Z,48.00
2022-07-25T20:50:44.468Z,47.88
2022-07-25T20:53:12.374Z,47.86
2022-07-25T20:55:40.106Z,47.76
2022-07-25T20:58:07.890Z,47.94
2022-07-25T21:00:35.720Z,47.63
2022-07-25T21:03:03.842Z,47.77
2022-07-25T21:05:31.727Z,47.87
2022-07-25T21:07:59.463Z,48.02
2022-07-25T21:10:27.464Z,48.03
2022-07-25T21:12:56.985Z,48.11
2022-07-25T21:15:25.579Z,48.86
2022-07-25T21:17:53.342Z,49.23
2022-07-25T21:20:21.190Z,49.55
2022-07-25T21:22:49.226Z,49.87
2022-07-25T21:25:16.906Z,50.27
2022-07-25T21:27:44.844Z,50.75
2022-07-25T21:30:13.306Z,51.66
2022-07-25T21:32:41.803Z,51.92
2022-07-25T21:35:10.015Z,52.38
2022-07-25T21:37:37.807Z,52.54
2022-07-25T21:40:06.100Z,52.68
2022-07-25T21:42:33.852Z,52.78
2022-07-25T21:45:01.596Z,53.87
2022-07-25T21:47:29.500Z,54.07
2022-07-25T21:50:21.362Z,54.08
2022-07-25T21:52:52.995Z,54.06
2022-07-25T21:55:21.213Z,54.31
2022-07-25T21:57:49.330Z,54.60
2022-07-25T22:00:17.570Z,54.79
2022-07-25T22:02:47.334Z,55.20
2022-07-25T22:05:16.541Z,56.35
2022-07-25T22:07:47.269Z,56.06
2022-07-25T22:10:16.507Z,56.20
2022-07-25T22:12:44.671Z,56.50
2022-07-25T22:15:14.071Z,56.75
2022-07-25T22:17:48.232Z,57.02
2022-07-25T22:20:18.225Z,57.23
2022-07-25T22:22:47.286Z,57.41
2022-07-25T22:25:15.024Z,57.65
2022-07-25T22:27:42.870Z,57.74
2022-07-25T22:30:17.993Z,57.36
2022-07-25T22:32:47.192Z,56.84
2022-07-25T22:35:15.239Z,56.55
2022-07-25T22:37:42.943Z,56.17
2022-07-25T22:40:11.047Z,55.62
2022-07-25T22:42:38.769Z,55.05
2022-07-25T22:45:07.066Z,54.89
2022-07-25T22:47:34.757Z,54.96
2022-07-25T22:50:02.418Z,54.89
2022-07-25T22:52:30.132Z,54.51
2022-07-25T22:54:57.991Z,54.21
2022-07-25T22:57:25.701Z,53.88
2022-07-25T22:59:53.426Z,53.47
2022-07-25T23:02:21.100Z,52.95
2022-07-25T23:04:48.761Z,52.68
2022-07-25T23:07:16.422Z,52.59
2022-07-25T23:09:44.290Z,52.37
2022-07-25T23:12:12.384Z,52.05
2022-07-25T23:14:40.127Z,51.90
2022-07-25T23:17:21.143Z,51.60
2022-07-25T23:19:50.525Z,51.49
2022-07-25T23:22:19.271Z,51.15
2022-07-25T23:24:47.359Z,51.02
2022-07-25T23:27:16.005Z,50.93
2022-07-25T23:29:44.261Z,50.99
2022-07-25T23:32:12.036Z,51.02
2022-07-25T23:34:40.017Z,51.07
2022-07-25T23:37:07.852Z,51.11
2022-07-25T23:39:35.617Z,51.13
2022-07-25T23:42:04.630Z,51.16
2022-07-25T23:44:32.391Z,51.17
2022-07-25T23:47:01.578Z,51.17
2022-07-25T23:49:30.023Z,51.37
2022-07-25T23:51:58.308Z,51.83
2022-07-25T23:54:26.077Z,52.04
2022-07-25T23:56:54.549Z,51.99
2022-07-25T23:59:22.365Z,51.95
